This is the latest recevied weather packets stored in our database for station/object WZ9ZZZ-1. If no packets are shown the sender has not sent any weather packets the latest 1 day(s).
| Time | Temp. | Humidity | Pressure | Rain* | Wind** | Luminosity | Snow |
|---|---|---|---|---|---|---|---|
| 1778005839 | 26.67° C | 84% | 1013.4 hPa | 0 mm | 3.13 m/s, 229° | 192 W/m² | - |
| 1778005535 | 26.67° C | 84% | 1013.4 hPa | 0 mm | 1.34 m/s, 175° | 209 W/m² | - |
| 1778005232 | 26.11° C | 84% | 1013.5 hPa | 0 mm | 2.24 m/s, 310° | 168 W/m² | - |
| 1778004929 | 26.11° C | 84% | 1013.5 hPa | 0 mm | 2.68 m/s, 240° | 141 W/m² | - |
| 1778004627 | 26.11° C | 84% | 1013.3 hPa | 0 mm | 4.02 m/s, 282° | 138 W/m² | - |
| 1778004322 | 26.11° C | 84% | 1013.5 hPa | 0 mm | 1.34 m/s, 266° | 132 W/m² | - |
| 1778004021 | 26.11° C | 84% | 1013.5 hPa | 0 mm | 1.34 m/s, 248° | 154 W/m² | - |
| 1778003720 | 26.11° C | 85% | 1013.5 hPa | 0 mm | 1.34 m/s, 204° | 249 W/m² | - |
| 1778003418 | 26.11° C | 85% | 1013.4 hPa | 0 mm | 1.34 m/s, 159° | 232 W/m² | - |
| 1778003115 | 25.56° C | 86% | 1013.5 hPa | 0 mm | 2.24 m/s, 198° | 236 W/m² | - |
| 1778002810 | 25.56° C | 86% | 1013.5 hPa | 0 mm | 3.13 m/s, 243° | 231 W/m² | - |
| 1778002507 | 25.56° C | 85% | 1013.4 hPa | 0 mm | 1.79 m/s, 292° | 134 W/m² | - |
| 1778002204 | 25.56° C | 85% | 1013.5 hPa | 0 mm | 1.34 m/s, 245° | 144 W/m² | - |
| 1778001902 | 25.56° C | 86% | 1013.8 hPa | 0 mm | 1.34 m/s, 238° | 193 W/m² | - |
| 1778001597 | 25.56° C | 87% | 1013.7 hPa | 0 mm | 1.79 m/s, 243° | 203 W/m² | - |
| 1778001293 | 25.56° C | 87% | 1013.9 hPa | 0 mm | 2.68 m/s, 293° | 232 W/m² | - |
| 1778000990 | 25.56° C | 86% | 1013.7 hPa | 0 mm | 1.79 m/s, 242° | 75 W/m² | - |
| 1778000687 | 25.56° C | 85% | 1013.9 hPa | 0 mm | 1.34 m/s, 176° | 88 W/m² | - |
| 1778000382 | 25.56° C | 85% | 1013.8 hPa | 0 mm | 3.58 m/s, 242° | 129 W/m² | - |
| 1778000078 | 25.56° C | 85% | 1013.9 hPa | 0 mm | 1.34 m/s, 184° | 124 W/m² | - |
| 1777999774 | 25.56° C | 85% | 1013.6 hPa | 0 mm | 1.34 m/s, 169° | 92 W/m² | - |
| 1777999471 | 26.11° C | 84% | 1013.6 hPa | 0 mm | 1.79 m/s, 238° | 150 W/m² | - |
| 1777999169 | 26.11° C | 84% | 1013.7 hPa | 0 mm | 2.68 m/s, 220° | 111 W/m² | - |
| 1777998867 | 26.11° C | 84% | 1013.8 hPa | 0 mm | 2.24 m/s, 220° | 161 W/m² | - |
| 1777998566 | 25.56° C | 84% | 1013.8 hPa | 0 mm | 1.79 m/s, 256° | 161 W/m² | - |
* Rain latest hour (hover to see other rain measurements)
** Current wind speed in m/s (hover to see current wind gust speed)